createdAt,value
2018-04-08T00:00:33.545Z,100285
2018-04-08T00:03:01.650Z,100290
2018-04-08T00:05:29.744Z,100298
2018-04-08T00:07:57.845Z,100289
2018-04-08T00:10:25.960Z,100281
2018-04-08T00:12:54.082Z,100280
2018-04-08T00:15:22.175Z,100285
2018-04-08T00:17:50.277Z,100267
2018-04-08T00:20:18.377Z,100270
2018-04-08T00:22:46.472Z,100274
2018-04-08T00:25:14.602Z,100272
2018-04-08T00:27:42.689Z,100272
2018-04-08T00:30:10.813Z,100273
2018-04-08T00:32:38.942Z,100263
2018-04-08T00:35:07.046Z,100263
2018-04-08T00:37:35.172Z,100260
2018-04-08T00:40:03.312Z,100256
2018-04-08T00:42:31.419Z,100260
2018-04-08T00:44:59.563Z,100258
2018-04-08T00:47:27.711Z,100257
2018-04-08T00:49:55.826Z,100251
2018-04-08T00:52:24.955Z,100258
2018-04-08T00:54:53.070Z,100262
2018-04-08T00:57:21.181Z,100261
2018-04-08T00:59:49.357Z,100258
2018-04-08T01:02:17.472Z,100266
2018-04-08T01:04:45.573Z,100259
2018-04-08T01:07:13.687Z,100255
2018-04-08T01:09:41.856Z,100261
2018-04-08T01:12:09.964Z,100254
2018-04-08T01:14:38.215Z,100247
2018-04-08T01:17:06.324Z,100250
2018-04-08T01:19:34.510Z,100255
2018-04-08T01:22:02.898Z,100245
2018-04-08T01:24:31.008Z,100248
2018-04-08T01:26:59.135Z,100255
2018-04-08T01:29:27.269Z,100249
2018-04-08T01:31:55.349Z,100247
2018-04-08T01:34:23.477Z,100238
2018-04-08T01:36:51.594Z,100245
2018-04-08T01:39:19.704Z,100242
2018-04-08T01:41:47.811Z,100234
2018-04-08T01:44:15.890Z,100231
2018-04-08T01:46:44.018Z,100225
2018-04-08T01:49:12.136Z,100229
2018-04-08T01:51:40.247Z,100230
2018-04-08T01:54:08.582Z,100227
2018-04-08T01:56:36.682Z,100221
2018-04-08T01:59:04.802Z,100227
2018-04-08T02:01:32.894Z,100231
2018-04-08T02:04:00.994Z,100221
2018-04-08T02:06:29.097Z,100220
2018-04-08T02:08:57.210Z,100227
2018-04-08T02:11:25.326Z,100218
2018-04-08T02:13:53.405Z,100221
2018-04-08T02:16:21.536Z,100229
2018-04-08T02:18:49.649Z,100221
2018-04-08T02:21:17.786Z,100218
2018-04-08T02:23:45.871Z,100216
2018-04-08T02:26:13.967Z,100219
2018-04-08T02:28:43.575Z,100218
2018-04-08T02:31:11.654Z,100219
2018-04-08T02:33:39.874Z,100214
2018-04-08T02:36:07.980Z,100215
2018-04-08T02:38:36.096Z,100227
2018-04-08T02:41:04.195Z,100221
2018-04-08T02:43:32.407Z,100221
2018-04-08T02:46:00.506Z,100207
2018-04-08T02:48:28.639Z,100214
2018-04-08T02:50:56.761Z,100207
2018-04-08T02:53:24.853Z,100224
2018-04-08T02:55:53.167Z,100215
2018-04-08T02:58:21.268Z,100210
2018-04-08T03:00:49.374Z,100217
2018-04-08T03:03:17.470Z,100212
2018-04-08T03:05:45.572Z,100210
2018-04-08T03:08:13.659Z,100215
2018-04-08T03:10:41.802Z,100216
2018-04-08T03:13:09.898Z,100210
2018-04-08T03:15:38.008Z,100220
2018-04-08T03:18:06.104Z,100226
2018-04-08T03:20:34.975Z,100216
2018-04-08T03:23:03.098Z,100209
2018-04-08T03:25:31.202Z,100208
2018-04-08T03:27:59.309Z,100206
2018-04-08T03:30:27.414Z,100206
2018-04-08T03:32:55.524Z,100194
2018-04-08T03:35:23.642Z,100200
2018-04-08T03:37:51.767Z,100201
2018-04-08T03:40:19.865Z,100191
2018-04-08T03:42:47.974Z,100200
2018-04-08T03:45:16.092Z,100195
2018-04-08T03:47:44.187Z,100193
2018-04-08T03:50:12.320Z,100204
2018-04-08T03:52:40.416Z,100201
2018-04-08T03:55:08.678Z,100194
2018-04-08T03:57:36.896Z,100193
2018-04-08T04:00:05.004Z,100199
2018-04-08T04:02:33.084Z,100186
2018-04-08T04:05:01.192Z,100185
2018-04-08T04:07:29.285Z,100191
2018-04-08T04:09:57.372Z,100191
2018-04-08T04:12:25.455Z,100181
2018-04-08T04:14:53.554Z,100180
2018-04-08T04:17:21.634Z,100181
2018-04-08T04:20:01.360Z,100172
2018-04-08T04:22:41.135Z,100181
2018-04-08T04:25:25.741Z,100179
2018-04-08T04:27:53.865Z,100185
2018-04-08T04:30:22.042Z,100172
2018-04-08T04:32:50.309Z,100170
2018-04-08T04:35:18.403Z,100164
2018-04-08T04:37:46.727Z,100172
2018-04-08T04:40:15.163Z,100166
2018-04-08T04:42:43.561Z,100171
2018-04-08T04:45:11.658Z,100167
2018-04-08T04:47:39.987Z,100162
2018-04-08T04:50:08.199Z,100181
2018-04-08T04:52:36.334Z,100169
2018-04-08T04:55:04.674Z,100171
2018-04-08T04:57:33.207Z,100167
2018-04-08T05:00:01.345Z,100175
2018-04-08T05:02:29.491Z,100170
2018-04-08T05:04:57.964Z,100183
2018-04-08T05:07:26.668Z,100175
2018-04-08T05:09:54.887Z,100182
2018-04-08T05:12:23.273Z,100181
2018-04-08T05:14:51.623Z,100178
2018-04-08T05:17:19.994Z,100176
2018-04-08T05:19:48.365Z,100177
2018-04-08T05:22:16.479Z,100168
2018-04-08T05:24:44.836Z,100176
2018-04-08T05:27:13.198Z,100170
2018-04-08T05:29:41.321Z,100174
2018-04-08T05:32:09.455Z,100164
2018-04-08T05:34:38.030Z,100171
2018-04-08T05:37:06.428Z,100173
2018-04-08T05:39:34.780Z,100154
2018-04-08T05:42:03.190Z,100165
2018-04-08T05:44:31.363Z,100169
2018-04-08T05:46:59.917Z,100173
2018-04-08T05:49:28.133Z,100170
2018-04-08T05:51:56.271Z,100170
2018-04-08T05:54:24.423Z,100181
2018-04-08T05:56:52.742Z,100174
2018-04-08T05:59:20.848Z,100174
2018-04-08T06:01:48.971Z,100147
2018-04-08T06:04:17.315Z,100174
2018-04-08T06:06:45.732Z,100176
2018-04-08T06:09:13.823Z,100169
2018-04-08T06:11:42.011Z,100172
2018-04-08T06:14:10.424Z,100179
2018-04-08T06:16:39.367Z,100181
2018-04-08T06:19:07.534Z,100168
2018-04-08T06:21:35.622Z,100165
2018-04-08T06:24:03.967Z,100163
2018-04-08T06:26:32.324Z,100164
2018-04-08T06:29:00.497Z,100170
2018-04-08T06:31:28.607Z,100159
2018-04-08T06:33:56.730Z,100158
2018-04-08T06:36:24.823Z,100162
2018-04-08T06:38:53.135Z,100172
2018-04-08T06:41:22.332Z,100168
2018-04-08T06:43:50.534Z,100159
2018-04-08T06:46:18.680Z,100155
2018-04-08T06:48:46.775Z,100158
2018-04-08T06:51:14.932Z,100158
2018-04-08T06:53:43.199Z,100160
2018-04-08T06:56:11.347Z,100162
2018-04-08T06:58:39.806Z,100161
2018-04-08T07:01:07.988Z,100159
2018-04-08T07:03:36.145Z,100161
2018-04-08T07:06:04.549Z,100158
2018-04-08T07:08:32.910Z,100156
2018-04-08T07:11:01.018Z,100171
2018-04-08T07:13:29.146Z,100163
2018-04-08T07:15:57.407Z,100165
2018-04-08T07:18:25.772Z,100164
2018-04-08T07:20:53.974Z,100162
2018-04-08T07:23:22.368Z,100172
2018-04-08T07:25:50.678Z,100163
2018-04-08T07:28:19.112Z,100155
2018-04-08T07:30:47.381Z,100158
2018-04-08T07:33:15.613Z,100154
2018-04-08T07:35:43.855Z,100161
2018-04-08T07:38:12.326Z,100152
2018-04-08T07:40:40.905Z,100151
2018-04-08T07:43:09.032Z,100144
2018-04-08T07:45:37.461Z,100147
2018-04-08T07:48:06.141Z,100138
2018-04-08T07:50:34.420Z,100143
2018-04-08T07:53:03.066Z,100155
2018-04-08T07:55:31.491Z,100147
2018-04-08T07:57:59.958Z,100145
2018-04-08T08:00:28.261Z,100148
2018-04-08T08:02:56.623Z,100145
2018-04-08T08:05:24.982Z,100150
2018-04-08T08:07:53.474Z,100152
2018-04-08T08:10:22.903Z,100146
2018-04-08T08:12:51.276Z,100147
2018-04-08T08:15:19.517Z,100147
2018-04-08T08:17:48.216Z,100145
2018-04-08T08:20:16.412Z,100155
2018-04-08T08:22:44.844Z,100152
2018-04-08T08:25:13.102Z,100158
2018-04-08T08:27:41.620Z,100152
2018-04-08T08:30:11.122Z,100159
2018-04-08T08:32:39.258Z,100152
2018-04-08T08:35:07.472Z,100153
2018-04-08T08:37:35.673Z,100146
2018-04-08T08:40:03.826Z,100151
2018-04-08T08:42:32.052Z,100148
2018-04-08T08:45:00.246Z,100147
2018-04-08T08:47:28.474Z,100145
2018-04-08T08:49:56.715Z,100144
2018-04-08T08:52:25.201Z,100140
2018-04-08T08:54:53.339Z,100147
2018-04-08T08:57:21.461Z,100152
2018-04-08T08:59:49.787Z,100152
2018-04-08T09:02:19.950Z,100130
2018-04-08T09:04:48.202Z,100159
2018-04-08T09:07:16.388Z,100154
2018-04-08T09:09:44.822Z,100147
2018-04-08T09:12:13.025Z,100160
2018-04-08T09:14:41.140Z,100153
2018-04-08T09:17:09.247Z,100157
2018-04-08T09:19:41.254Z,100157
2018-04-08T09:22:15.205Z,100160
2018-04-08T09:24:44.890Z,100154
2018-04-08T09:27:13.082Z,100156
2018-04-08T09:29:41.206Z,100152
2018-04-08T09:32:09.329Z,100149
2018-04-08T09:34:37.542Z,100151
2018-04-08T09:37:05.788Z,100154
2018-04-08T09:39:33.914Z,100158
2018-04-08T09:42:02.327Z,100152
2018-04-08T09:44:30.541Z,100147
2018-04-08T09:46:58.747Z,100149
2018-04-08T09:49:27.172Z,100147
2018-04-08T09:51:56.360Z,100156
2018-04-08T09:54:24.465Z,100144
2018-04-08T09:56:52.726Z,100143
2018-04-08T09:59:21.563Z,100142
2018-04-08T10:01:51.668Z,100128
2018-04-08T10:04:20.057Z,100137
2018-04-08T10:06:48.305Z,100126
2018-04-08T10:09:16.501Z,100127
2018-04-08T10:11:44.931Z,100126
2018-04-08T10:14:13.276Z,100130
2018-04-08T10:16:41.381Z,100124
2018-04-08T10:19:09.729Z,100131
2018-04-08T10:21:37.982Z,100126
2018-04-08T10:24:06.059Z,100116
2018-04-08T10:26:34.288Z,100129
2018-04-08T10:29:02.689Z,100123
2018-04-08T10:31:30.831Z,100123
2018-04-08T10:33:59.074Z,100115
2018-04-08T10:36:27.391Z,100125
2018-04-08T10:38:55.606Z,100109
2018-04-08T10:41:23.843Z,100108
2018-04-08T10:43:52.045Z,100116
2018-04-08T10:46:20.525Z,100112
2018-04-08T10:48:48.844Z,100111
2018-04-08T10:51:17.388Z,100109
2018-04-08T10:53:45.768Z,100111
2018-04-08T10:56:13.941Z,100108
2018-04-08T10:58:42.273Z,100095
2018-04-08T11:01:10.714Z,100107
2018-04-08T11:03:39.154Z,100100
2018-04-08T11:06:07.383Z,100096
2018-04-08T11:08:35.651Z,100098
2018-04-08T11:11:04.053Z,100104
2018-04-08T11:13:32.455Z,100093
2018-04-08T11:16:00.922Z,100094
2018-04-08T11:18:29.396Z,100098
2018-04-08T11:20:57.502Z,100089
2018-04-08T11:23:25.689Z,100092
2018-04-08T11:25:53.802Z,100086
2018-04-08T11:28:21.964Z,100076
2018-04-08T11:30:50.419Z,100086
2018-04-08T11:33:18.545Z,100085
2018-04-08T11:35:46.808Z,100082
2018-04-08T11:38:14.963Z,100066
2018-04-08T11:40:43.216Z,100074
2018-04-08T11:43:11.369Z,100078
2018-04-08T11:45:39.557Z,100082
2018-04-08T11:48:07.877Z,100080
2018-04-08T11:50:35.980Z,100082
2018-04-08T11:53:04.156Z,100075
2018-04-08T11:55:33.011Z,100083
2018-04-08T11:58:01.144Z,100086
2018-04-08T12:00:30.897Z,100073
2018-04-08T12:02:59.263Z,100066
2018-04-08T12:05:27.511Z,100065
2018-04-08T12:07:55.750Z,100059
2018-04-08T12:10:24.151Z,100065
2018-04-08T12:12:52.354Z,100067
2018-04-08T12:15:20.702Z,100059
2018-04-08T12:17:49.142Z,100057
2018-04-08T12:20:17.485Z,100062
2018-04-08T12:22:45.719Z,100047
2018-04-08T12:25:13.986Z,100049
2018-04-08T12:27:42.106Z,100051
2018-04-08T12:30:10.572Z,100056
2018-04-08T12:32:38.718Z,100048
2018-04-08T12:35:06.805Z,100051
2018-04-08T12:37:35.135Z,100052
2018-04-08T12:40:03.320Z,100036
2018-04-08T12:42:31.472Z,100040
2018-04-08T12:44:59.757Z,100035
2018-04-08T12:47:28.349Z,100036
2018-04-08T12:49:57.447Z,100028
2018-04-08T12:52:25.718Z,100031
2018-04-08T12:54:54.170Z,100033
2018-04-08T12:57:22.573Z,100034
2018-04-08T12:59:51.728Z,100027
2018-04-08T13:02:21.112Z,100024
2018-04-08T13:04:49.269Z,100032
2018-04-08T13:07:17.590Z,100017
2018-04-08T13:09:45.797Z,100029
2018-04-08T13:12:13.936Z,100010
2018-04-08T13:14:42.130Z,100011
2018-04-08T13:17:10.291Z,100017
2018-04-08T13:19:38.386Z,100011
2018-04-08T13:22:06.550Z,100014
2018-04-08T13:24:34.919Z,100014
2018-04-08T13:27:03.391Z,100007
2018-04-08T13:29:31.495Z,100007
2018-04-08T13:32:00.084Z,100007
2018-04-08T13:34:28.285Z,100011
2018-04-08T13:36:56.416Z,99997
2018-04-08T13:39:24.565Z,100000
2018-04-08T13:41:52.931Z,100006
2018-04-08T13:44:21.056Z,99991
2018-04-08T13:46:49.168Z,99993
2018-04-08T13:49:17.520Z,99999
2018-04-08T13:51:45.726Z,99990
2018-04-08T13:54:14.024Z,99986
2018-04-08T13:56:42.330Z,99987
2018-04-08T13:59:10.703Z,99988
2018-04-08T14:01:38.843Z,99979
2018-04-08T14:04:06.908Z,99989
2018-04-08T14:06:35.138Z,99973
2018-04-08T14:09:03.381Z,99981
2018-04-08T14:11:31.527Z,99977
2018-04-08T14:13:59.832Z,99973
2018-04-08T14:16:28.048Z,99978
2018-04-08T14:18:56.118Z,99973
2018-04-08T14:21:24.542Z,99990
2018-04-08T14:23:52.727Z,99979
2018-04-08T14:26:21.087Z,99978
2018-04-08T14:28:49.180Z,99970
2018-04-08T14:31:17.527Z,99978
2018-04-08T14:33:45.931Z,99976
2018-04-08T14:36:14.056Z,99972
2018-04-08T14:38:42.616Z,99968
2018-04-08T14:41:10.810Z,99968
2018-04-08T14:43:38.962Z,99964
2018-04-08T14:46:07.161Z,99965
2018-04-08T14:48:35.509Z,99969
2018-04-08T14:51:03.753Z,99968
2018-04-08T14:53:33.069Z,99966
2018-04-08T14:56:02.069Z,99960
2018-04-08T14:58:31.549Z,99972
2018-04-08T15:00:59.936Z,99950
2018-04-08T15:03:28.486Z,99960
2018-04-08T15:05:56.638Z,99967
2018-04-08T15:08:25.010Z,99957
2018-04-08T15:10:53.585Z,99954
2018-04-08T15:13:21.874Z,99950
2018-04-08T15:15:50.198Z,99954
2018-04-08T15:18:18.340Z,99948
2018-04-08T15:20:46.455Z,99955
2018-04-08T15:23:14.980Z,99946
2018-04-08T15:25:43.613Z,99946
2018-04-08T15:28:11.763Z,99943
2018-04-08T15:30:40.141Z,99946
2018-04-08T15:33:08.388Z,99937
2018-04-08T15:35:37.082Z,99940
2018-04-08T15:38:05.496Z,99937
2018-04-08T15:40:33.609Z,99938
2018-04-08T15:43:01.750Z,99947
2018-04-08T15:45:30.042Z,99935
2018-04-08T15:47:58.288Z,99937
2018-04-08T15:50:26.468Z,99947
2018-04-08T15:52:54.682Z,99948
2018-04-08T15:55:23.210Z,99940
2018-04-08T15:57:51.766Z,99945
2018-04-08T16:00:20.019Z,99938
2018-04-08T16:02:48.491Z,99943
2018-04-08T16:05:16.589Z,99941
2018-04-08T16:07:44.927Z,99948
2018-04-08T16:10:13.492Z,99946
2018-04-08T16:12:41.650Z,99954
2018-04-08T16:15:10.029Z,99938
2018-04-08T16:17:38.363Z,99934
2018-04-08T16:20:06.589Z,99937
2018-04-08T16:22:35.143Z,99933
2018-04-08T16:25:03.330Z,99936
2018-04-08T16:27:31.619Z,99943
2018-04-08T16:30:00.298Z,99949
2018-04-08T16:32:28.864Z,99949
2018-04-08T16:34:57.422Z,99950
2018-04-08T16:37:25.830Z,99954
2018-04-08T16:39:53.993Z,99954
2018-04-08T16:42:22.561Z,99957
2018-04-08T16:44:51.092Z,99954
2018-04-08T16:47:19.228Z,99956
2018-04-08T16:49:47.560Z,99963
2018-04-08T16:52:15.820Z,99956
2018-04-08T16:54:43.997Z,99960
2018-04-08T16:57:12.512Z,99959
2018-04-08T16:59:40.796Z,99958
2018-04-08T17:02:08.912Z,99963
2018-04-08T17:04:37.014Z,99964
2018-04-08T17:07:05.130Z,99959
2018-04-08T17:09:33.458Z,99964
2018-04-08T17:12:01.627Z,99963
2018-04-08T17:14:29.878Z,99967
2018-04-08T17:16:58.252Z,99964
2018-04-08T17:19:26.382Z,99960
2018-04-08T17:21:54.526Z,99965
2018-04-08T17:24:22.773Z,99954
2018-04-08T17:26:51.178Z,99967
2018-04-08T17:29:19.580Z,99970
2018-04-08T17:31:47.761Z,99979
2018-04-08T17:34:15.940Z,99975
2018-04-08T17:36:44.150Z,99976
2018-04-08T17:39:12.459Z,99975
2018-04-08T17:41:40.694Z,99982
2018-04-08T17:44:08.777Z,99980
2018-04-08T17:46:37.190Z,99979
2018-04-08T17:49:05.638Z,99983
2018-04-08T17:51:33.743Z,99989
2018-04-08T17:54:21.633Z,99988
2018-04-08T17:57:01.083Z,99984
2018-04-08T17:59:29.214Z,99996
2018-04-08T18:01:57.491Z,99993
2018-04-08T18:04:25.673Z,99998
2018-04-08T18:06:53.772Z,99996
2018-04-08T18:09:24.548Z,99993
2018-04-08T18:11:52.976Z,99996
2018-04-08T18:14:21.059Z,99998
2018-04-08T18:16:49.131Z,100002
2018-04-08T18:19:17.232Z,99994
2018-04-08T18:21:45.341Z,99995
2018-04-08T18:24:13.420Z,99997
2018-04-08T18:26:41.509Z,100000
2018-04-08T18:29:09.608Z,100003
2018-04-08T18:31:37.731Z,100013
2018-04-08T18:34:05.834Z,100019
2018-04-08T18:36:33.961Z,100014
2018-04-08T18:39:02.099Z,100014
2018-04-08T18:41:30.423Z,100015
2018-04-08T18:43:58.536Z,100018
2018-04-08T18:46:26.636Z,100017
2018-04-08T18:48:54.867Z,100019
2018-04-08T18:51:23.031Z,100020
2018-04-08T18:53:51.154Z,100014
2018-04-08T18:56:19.444Z,100015
2018-04-08T18:58:47.991Z,100023
2018-04-08T19:01:16.304Z,100026
2018-04-08T19:03:45.186Z,100029
2018-04-08T19:06:13.364Z,100035
2018-04-08T19:08:41.516Z,100038
2018-04-08T19:11:10.257Z,100034
2018-04-08T19:13:38.396Z,100043
2018-04-08T19:16:06.560Z,100042
2018-04-08T19:18:34.754Z,100035
2018-04-08T19:21:02.907Z,100030
2018-04-08T19:23:31.097Z,100032
2018-04-08T19:25:59.188Z,100032
2018-04-08T19:28:27.322Z,100042
2018-04-08T19:30:55.405Z,100037
2018-04-08T19:33:23.549Z,100045
2018-04-08T19:35:51.648Z,100029
2018-04-08T19:38:20.007Z,100037
2018-04-08T19:40:48.144Z,100035
2018-04-08T19:43:16.271Z,100040
2018-04-08T19:45:44.411Z,100030
2018-04-08T19:48:12.531Z,100036
2018-04-08T19:50:40.655Z,100034
2018-04-08T19:53:08.775Z,100043
2018-04-08T19:55:37.111Z,100044
2018-04-08T19:58:06.506Z,100046
2018-04-08T20:00:36.112Z,100040
2018-04-08T20:03:04.258Z,100042
2018-04-08T20:05:32.564Z,100045
2018-04-08T20:08:00.669Z,100038
2018-04-08T20:10:28.792Z,100039
2018-04-08T20:12:56.922Z,100038
2018-04-08T20:15:27.742Z,100035
2018-04-08T20:17:55.855Z,100043
2018-04-08T20:20:23.968Z,100051
2018-04-08T20:22:52.127Z,100037
2018-04-08T20:25:20.262Z,100041
2018-04-08T20:27:48.393Z,100039
2018-04-08T20:30:16.659Z,100042
2018-04-08T20:32:45.025Z,100049
2018-04-08T20:35:13.326Z,100032
2018-04-08T20:37:41.428Z,100035
2018-04-08T20:40:09.565Z,100043
2018-04-08T20:42:37.657Z,100035
2018-04-08T20:45:05.824Z,100034
2018-04-08T20:47:33.935Z,100032
2018-04-08T20:50:02.120Z,100025
2018-04-08T20:52:30.253Z,100018
2018-04-08T20:54:58.466Z,100027
2018-04-08T20:57:26.935Z,100018
2018-04-08T20:59:55.244Z,100015
2018-04-08T21:02:23.341Z,100016
2018-04-08T21:04:51.482Z,100006
2018-04-08T21:07:19.576Z,100013
2018-04-08T21:09:47.733Z,100009
2018-04-08T21:12:16.164Z,100009
2018-04-08T21:14:44.390Z,100006
2018-04-08T21:17:12.509Z,100006
2018-04-08T21:19:40.637Z,100018
2018-04-08T21:22:08.779Z,100013
2018-04-08T21:24:36.875Z,100013
2018-04-08T21:27:04.963Z,100001
2018-04-08T21:29:33.097Z,100003
2018-04-08T21:32:01.213Z,100008
2018-04-08T21:34:29.298Z,100003
2018-04-08T21:36:57.430Z,100005
2018-04-08T21:39:25.512Z,99997
2018-04-08T21:41:53.615Z,99999
2018-04-08T21:44:21.725Z,99991
2018-04-08T21:46:49.828Z,99990
2018-04-08T21:49:17.930Z,99996
2018-04-08T21:51:46.019Z,99984
2018-04-08T21:54:14.124Z,99988
2018-04-08T21:56:42.430Z,99986
2018-04-08T21:59:10.614Z,99985
2018-04-08T22:01:38.723Z,99991
2018-04-08T22:04:06.822Z,99996
2018-04-08T22:06:34.921Z,99997
2018-04-08T22:09:03.033Z,99981
2018-04-08T22:11:31.134Z,99990
2018-04-08T22:13:59.230Z,99992
2018-04-08T22:16:27.565Z,99990
2018-04-08T22:18:55.679Z,99983
2018-04-08T22:21:23.830Z,99979
2018-04-08T22:23:51.932Z,99976
2018-04-08T22:26:20.061Z,99984
2018-04-08T22:28:48.180Z,99979
2018-04-08T22:31:16.305Z,99972
2018-04-08T22:33:44.411Z,99981
2018-04-08T22:36:12.517Z,99988
2018-04-08T22:38:40.649Z,99987
2018-04-08T22:41:08.735Z,99991
2018-04-08T22:43:36.844Z,99984
2018-04-08T22:46:04.986Z,99993
2018-04-08T22:48:33.129Z,99990
2018-04-08T22:51:01.247Z,99989
2018-04-08T22:53:29.368Z,99986
2018-04-08T22:55:57.645Z,100003
2018-04-08T22:58:25.752Z,100003
2018-04-08T23:00:53.849Z,99995
2018-04-08T23:03:21.963Z,99993
2018-04-08T23:05:50.082Z,99986
2018-04-08T23:08:18.170Z,99987
2018-04-08T23:10:46.305Z,99986
2018-04-08T23:13:14.385Z,99977
2018-04-08T23:15:42.487Z,99974
2018-04-08T23:18:10.603Z,99977
2018-04-08T23:20:38.730Z,99982
2018-04-08T23:23:06.831Z,99981
2018-04-08T23:25:34.935Z,99977
2018-04-08T23:28:03.073Z,99982
2018-04-08T23:30:31.157Z,99994
2018-04-08T23:32:59.252Z,99983
2018-04-08T23:35:27.331Z,99978
2018-04-08T23:37:55.438Z,99990
2018-04-08T23:40:23.541Z,99974
2018-04-08T23:42:51.624Z,99985
2018-04-08T23:45:19.764Z,99978
2018-04-08T23:47:47.856Z,99974
2018-04-08T23:50:16.000Z,99969
2018-04-08T23:52:44.075Z,99972
2018-04-08T23:55:12.256Z,99967
2018-04-08T23:57:40.368Z,99969
